createdAt,value
2018-04-09T00:02:15.959Z,5.17
2018-04-09T00:04:43.432Z,4.07
2018-04-09T00:07:10.895Z,5.87
2018-04-09T00:09:38.428Z,5.57
2018-04-09T00:12:06.188Z,5.80
2018-04-09T00:14:33.652Z,4.80
2018-04-09T00:17:01.108Z,3.80
2018-04-09T00:19:28.867Z,5.40
2018-04-09T00:21:56.486Z,5.17
2018-04-09T00:24:24.041Z,4.80
2018-04-09T00:26:51.551Z,6.80
2018-04-09T00:29:19.314Z,4.80
2018-04-09T00:31:46.796Z,5.00
2018-04-09T00:34:14.265Z,4.23
2018-04-09T00:36:41.723Z,5.23
2018-04-09T00:39:09.356Z,4.70
2018-04-09T00:41:36.819Z,5.10
2018-04-09T00:44:05.152Z,5.27
2018-04-09T00:46:32.752Z,4.97
2018-04-09T00:49:00.216Z,6.13
2018-04-09T00:51:27.792Z,5.50
2018-04-09T00:54:00.731Z,5.83
2018-04-09T00:56:28.344Z,5.50
2018-04-09T00:58:55.876Z,5.60
2018-04-09T01:01:23.335Z,5.23
2018-04-09T01:03:50.816Z,5.63
2018-04-09T01:06:18.280Z,5.83
2018-04-09T01:08:45.735Z,4.40
2018-04-09T01:13:46.387Z,5.33
2018-04-09T01:16:13.870Z,6.20
2018-04-09T01:18:41.384Z,6.17
2018-04-09T01:21:08.843Z,6.00
2018-04-09T01:23:36.522Z,5.80
2018-04-09T01:26:03.984Z,5.00
2018-04-09T01:28:31.441Z,5.03
2018-04-09T01:30:58.907Z,4.87
2018-04-09T01:33:26.367Z,5.23
2018-04-09T01:35:53.840Z,5.27
2018-04-09T01:38:21.304Z,5.37
2018-04-09T01:40:48.779Z,6.30
2018-04-09T01:43:16.254Z,5.77
2018-04-09T01:45:43.713Z,5.97
2018-04-09T01:48:11.274Z,6.10
2018-04-09T01:50:38.865Z,5.20
2018-04-09T01:53:07.096Z,6.40
2018-04-09T01:55:34.792Z,6.30
2018-04-09T01:58:02.561Z,5.90
2018-04-09T02:00:30.324Z,6.03
2018-04-09T02:02:58.238Z,6.20
2018-04-09T02:05:25.847Z,5.67
2018-04-09T02:07:53.395Z,6.10
2018-04-09T02:10:20.865Z,6.90
2018-04-09T02:12:48.331Z,5.50
2018-04-09T02:15:15.804Z,6.27
2018-04-09T02:17:44.023Z,7.00
2018-04-09T02:20:11.500Z,5.77
2018-04-09T02:22:38.976Z,5.93
2018-04-09T02:25:06.740Z,5.63
2018-04-09T02:27:34.205Z,6.50
2018-04-09T02:30:01.678Z,6.53
2018-04-09T02:32:29.259Z,6.70
2018-04-09T02:34:57.038Z,6.20
2018-04-09T02:37:24.517Z,5.60
2018-04-09T02:39:51.985Z,7.10
2018-04-09T02:42:19.472Z,6.73
2018-04-09T02:44:46.978Z,6.87
2018-04-09T02:47:14.465Z,6.67
2018-04-09T02:49:42.865Z,6.03
2018-04-09T02:52:10.332Z,7.90
2018-04-09T02:54:37.797Z,7.47
2018-04-09T02:57:05.268Z,7.60
2018-04-09T02:59:33.004Z,7.13
2018-04-09T03:02:00.461Z,5.80
2018-04-09T03:04:27.937Z,6.27
2018-04-09T03:06:55.592Z,7.10
2018-04-09T03:09:23.174Z,7.10
2018-04-09T03:11:50.750Z,6.10
2018-04-09T03:14:18.364Z,6.20
2018-04-09T03:16:46.129Z,6.57
2018-04-09T03:19:13.892Z,6.37
2018-04-09T03:21:41.359Z,6.40
2018-04-09T03:24:09.047Z,6.87
2018-04-09T03:26:36.508Z,5.53
2018-04-09T03:29:03.979Z,6.57
2018-04-09T03:31:31.492Z,6.77
2018-04-09T03:33:58.966Z,7.73
2018-04-09T03:36:26.709Z,7.17
2018-04-09T03:38:54.186Z,6.10
2018-04-09T03:41:21.661Z,6.50
2018-04-09T03:43:49.394Z,6.30
2018-04-09T03:46:17.164Z,7.27
2018-04-09T03:48:44.930Z,6.00
2018-04-09T03:51:12.380Z,7.77
2018-04-09T03:53:40.066Z,7.30
2018-04-09T03:56:07.593Z,7.50
2018-04-09T03:58:35.056Z,7.53
2018-04-09T04:01:02.517Z,6.70
2018-04-09T04:03:30.012Z,6.00
2018-04-09T04:05:57.468Z,6.93
2018-04-09T04:08:25.111Z,7.80
2018-04-09T04:10:52.579Z,7.70
2018-04-09T04:13:20.060Z,6.50
2018-04-09T04:15:59.371Z,7.03
2018-04-09T04:18:36.433Z,6.93
2018-04-09T04:21:16.590Z,7.80
2018-04-09T04:23:44.352Z,7.50
2018-04-09T04:26:12.116Z,6.80
2018-04-09T04:28:39.585Z,8.70
2018-04-09T04:31:07.060Z,8.17
2018-04-09T04:33:34.745Z,9.13
2018-04-09T04:36:02.259Z,8.60
2018-04-09T04:38:30.028Z,7.40
2018-04-09T04:40:57.787Z,7.37
2018-04-09T04:43:25.251Z,6.63
2018-04-09T04:45:53.090Z,6.83
2018-04-09T04:48:20.775Z,8.00
2018-04-09T04:50:48.247Z,7.90
2018-04-09T04:53:15.875Z,7.87
2018-04-09T04:55:43.372Z,7.90
2018-04-09T04:58:10.840Z,8.43
2018-04-09T05:00:39.075Z,7.10
2018-04-09T05:03:06.751Z,8.33
2018-04-09T05:05:34.219Z,8.10
2018-04-09T05:08:01.677Z,7.80
2018-04-09T05:10:29.234Z,8.27
2018-04-09T05:12:56.697Z,7.00
2018-04-09T05:15:24.171Z,7.73
2018-04-09T05:17:53.193Z,6.60
2018-04-09T05:20:20.805Z,7.90
2018-04-09T05:22:48.284Z,6.77
2018-04-09T05:25:15.824Z,8.10
2018-04-09T05:27:43.295Z,7.17
2018-04-09T05:30:10.793Z,7.57
2018-04-09T05:32:38.298Z,8.27
2018-04-09T05:35:05.748Z,8.57
2018-04-09T05:37:33.224Z,7.83
2018-04-09T05:40:00.781Z,7.00
2018-04-09T05:42:28.536Z,8.90
2018-04-09T05:44:56.358Z,8.90
2018-04-09T05:47:23.982Z,8.07
2018-04-09T05:49:51.484Z,8.80
2018-04-09T05:52:18.988Z,8.00
2018-04-09T05:54:46.451Z,8.77
2018-04-09T05:57:13.926Z,8.87
2018-04-09T05:59:41.663Z,8.57
2018-04-09T06:02:09.128Z,9.17
2018-04-09T06:04:36.888Z,8.60
2018-04-09T06:07:04.577Z,9.87
2018-04-09T06:09:32.042Z,9.27
2018-04-09T06:11:59.577Z,10.80
2018-04-09T06:14:27.345Z,8.93
2018-04-09T06:16:54.978Z,9.83
2018-04-09T06:19:22.515Z,10.10
2018-04-09T06:21:49.976Z,9.47
2018-04-09T06:24:17.475Z,9.90
2018-04-09T06:26:44.959Z,11.23
2018-04-09T06:29:12.703Z,11.10
2018-04-09T06:31:40.175Z,10.40
2018-04-09T06:34:07.851Z,10.53
2018-04-09T06:36:35.370Z,9.63
2018-04-09T06:39:02.880Z,10.33
2018-04-09T06:41:30.390Z,10.90
2018-04-09T06:43:57.863Z,9.80
2018-04-09T06:46:25.319Z,9.93
2018-04-09T06:48:52.792Z,10.43
2018-04-09T06:51:21.040Z,11.10
2018-04-09T06:53:48.503Z,12.23
2018-04-09T06:56:15.973Z,11.83
2018-04-09T06:58:43.647Z,15.10
2018-04-09T07:01:11.304Z,15.83
2018-04-09T07:03:38.764Z,12.63
2018-04-09T07:06:07.011Z,14.03
2018-04-09T07:08:34.487Z,15.07
2018-04-09T07:11:02.251Z,14.80
2018-04-09T07:13:29.737Z,14.53
2018-04-09T07:15:57.203Z,16.50
2018-04-09T07:18:24.673Z,16.10
2018-04-09T07:20:52.390Z,16.10
2018-04-09T07:23:20.156Z,17.50
2018-04-09T07:25:47.925Z,16.43
2018-04-09T07:28:15.389Z,21.20
2018-04-09T07:30:43.060Z,18.87
2018-04-09T07:33:10.604Z,25.60
2018-04-09T07:35:38.201Z,28.00
2018-04-09T07:38:05.827Z,30.53
2018-04-09T07:40:34.227Z,30.73
2018-04-09T07:43:01.696Z,30.67
2018-04-09T07:45:29.225Z,29.97
2018-04-09T07:47:56.723Z,30.37
2018-04-09T07:50:24.196Z,29.70
2018-04-09T07:52:51.669Z,32.40
2018-04-09T07:55:19.168Z,28.57
2018-04-09T07:57:46.829Z,31.50
2018-04-09T08:00:14.295Z,32.73
2018-04-09T08:02:42.865Z,28.77
2018-04-09T08:05:11.862Z,28.93
2018-04-09T08:07:40.852Z,30.17
2018-04-09T08:10:09.837Z,32.90
2018-04-09T08:12:37.316Z,30.50
2018-04-09T08:15:04.770Z,29.10
2018-04-09T08:17:33.111Z,28.47
2018-04-09T08:20:00.574Z,29.43
2018-04-09T08:22:28.060Z,28.70
2018-04-09T08:24:57.032Z,29.37
2018-04-09T08:27:24.508Z,30.17
2018-04-09T08:29:53.656Z,30.70
2018-04-09T08:32:21.418Z,29.07
2018-04-09T08:34:48.944Z,29.27
2018-04-09T08:37:17.408Z,30.40
2018-04-09T08:39:46.372Z,30.53
2018-04-09T08:42:13.843Z,28.40
2018-04-09T08:44:41.310Z,29.33
2018-04-09T08:47:08.775Z,30.43
2018-04-09T08:49:37.763Z,32.03
2018-04-09T08:52:05.548Z,31.37
2018-04-09T08:54:33.083Z,30.53
2018-04-09T08:57:00.763Z,32.53
2018-04-09T08:59:29.738Z,31.70
2018-04-09T09:01:57.207Z,30.90
2018-04-09T09:04:24.681Z,32.47
2018-04-09T09:06:52.440Z,32.33
2018-04-09T09:09:19.913Z,33.23
2018-04-09T09:11:47.667Z,34.10
2018-04-09T09:14:15.146Z,32.10
2018-04-09T09:16:42.888Z,32.00
2018-04-09T09:19:11.852Z,31.27
2018-04-09T09:21:39.315Z,31.43
2018-04-09T09:24:06.775Z,30.53
2018-04-09T09:26:34.239Z,32.77
2018-04-09T09:29:01.721Z,32.73
2018-04-09T09:31:29.183Z,31.60
2018-04-09T09:33:56.939Z,30.87
2018-04-09T09:36:24.423Z,31.57
2018-04-09T09:38:52.069Z,30.33
2018-04-09T09:41:19.617Z,30.13
2018-04-09T09:43:47.084Z,28.37
2018-04-09T09:46:14.751Z,30.60
2018-04-09T09:48:42.227Z,28.80
2018-04-09T09:51:09.688Z,30.97
2018-04-09T09:53:37.207Z,28.53
2018-04-09T09:56:04.668Z,26.90
2018-04-09T09:58:32.147Z,30.13
2018-04-09T10:01:01.524Z,26.83
2018-04-09T10:03:28.988Z,29.13
2018-04-09T10:05:56.475Z,28.70
2018-04-09T10:08:24.108Z,27.67
2018-04-09T10:10:51.879Z,25.20
2018-04-09T10:13:19.639Z,24.90
2018-04-09T10:15:47.316Z,27.00
2018-04-09T10:18:15.941Z,28.97
2018-04-09T10:20:43.546Z,25.30
2018-04-09T10:23:11.247Z,26.73
2018-04-09T10:25:38.712Z,27.43
2018-04-09T10:28:06.227Z,26.60
2018-04-09T10:30:33.855Z,25.87
2018-04-09T10:33:01.452Z,27.43
2018-04-09T10:35:29.224Z,25.50
2018-04-09T10:37:56.900Z,26.30
2018-04-09T10:40:24.448Z,24.70
2018-04-09T10:42:52.119Z,26.57
2018-04-09T10:45:19.823Z,25.47
2018-04-09T10:47:48.117Z,24.77
2018-04-09T10:50:15.584Z,29.63
2018-04-09T10:52:43.192Z,25.73
2018-04-09T10:55:10.728Z,27.67
2018-04-09T10:57:38.193Z,28.07
2018-04-09T11:00:05.675Z,28.67
2018-04-09T11:02:33.408Z,25.43
2018-04-09T11:05:01.167Z,26.60
2018-04-09T11:07:28.639Z,27.17
2018-04-09T11:09:56.281Z,26.50
2018-04-09T11:12:23.859Z,27.73
2018-04-09T11:14:51.319Z,26.60
2018-04-09T11:17:19.079Z,27.53
2018-04-09T11:19:46.999Z,26.53
2018-04-09T11:22:14.532Z,26.87
2018-04-09T11:24:42.020Z,26.57
2018-04-09T11:27:09.483Z,26.93
2018-04-09T11:29:36.953Z,24.73
2018-04-09T11:32:04.596Z,26.23
2018-04-09T11:34:32.072Z,23.07
2018-04-09T11:36:59.584Z,25.10
2018-04-09T11:39:27.044Z,25.37
2018-04-09T11:41:54.586Z,23.60
2018-04-09T11:44:22.349Z,26.97
2018-04-09T11:46:49.818Z,25.27
2018-04-09T11:49:17.284Z,25.37
2018-04-09T11:51:45.630Z,25.57
2018-04-09T11:54:13.115Z,26.00
2018-04-09T11:56:40.575Z,25.67
2018-04-09T11:59:08.322Z,27.33
2018-04-09T12:01:35.801Z,27.93
2018-04-09T12:04:03.457Z,26.50
2018-04-09T12:06:30.921Z,28.07
2018-04-09T12:08:58.389Z,27.37
2018-04-09T12:11:25.862Z,26.90
2018-04-09T12:13:53.381Z,27.03
2018-04-09T12:16:21.062Z,28.50
2018-04-09T12:18:48.623Z,30.90
2018-04-09T12:21:16.085Z,29.70
2018-04-09T12:23:43.547Z,29.23
2018-04-09T12:26:11.065Z,30.60
2018-04-09T12:28:38.671Z,28.43
2018-04-09T12:31:06.509Z,28.63
2018-04-09T12:33:34.274Z,26.60
2018-04-09T12:36:01.954Z,28.70
2018-04-09T12:38:29.426Z,28.30
2018-04-09T12:40:56.984Z,28.07
2018-04-09T12:43:24.491Z,27.93
2018-04-09T12:45:51.962Z,29.97
2018-04-09T12:48:19.434Z,29.40
2018-04-09T12:50:47.100Z,27.20
2018-04-09T12:53:14.574Z,31.60
2018-04-09T12:55:42.037Z,27.07
2018-04-09T12:58:09.685Z,30.87
2018-04-09T13:00:37.158Z,29.40
2018-04-09T13:03:04.694Z,26.90
2018-04-09T13:05:32.159Z,26.93
2018-04-09T13:07:59.617Z,29.20
2018-04-09T13:10:27.219Z,29.40
2018-04-09T13:12:54.686Z,29.30
2018-04-09T13:15:22.281Z,28.80
2018-04-09T13:17:49.982Z,30.63
2018-04-09T13:20:17.441Z,33.27
2018-04-09T13:22:44.923Z,28.27
2018-04-09T13:25:12.380Z,28.63
2018-04-09T13:27:39.842Z,29.03
2018-04-09T13:30:07.308Z,28.83
2018-04-09T13:32:34.761Z,29.63
2018-04-09T13:35:02.232Z,30.40
2018-04-09T13:37:29.747Z,28.20
2018-04-09T13:39:57.282Z,29.37
2018-04-09T13:42:24.783Z,27.30
2018-04-09T13:44:52.317Z,28.77
2018-04-09T13:47:19.778Z,29.17
2018-04-09T13:49:47.245Z,30.17
2018-04-09T13:52:14.701Z,29.90
2018-04-09T13:54:42.230Z,31.17
2018-04-09T13:57:09.688Z,32.10
2018-04-09T13:59:37.250Z,31.37
2018-04-09T14:02:04.714Z,30.90
2018-04-09T14:04:32.370Z,30.90
2018-04-09T14:07:00.138Z,28.93
2018-04-09T14:09:27.814Z,30.40
2018-04-09T14:11:55.357Z,31.93
2018-04-09T14:14:22.818Z,29.53
2018-04-09T14:16:50.581Z,32.20
2018-04-09T14:19:18.348Z,31.37
2018-04-09T14:21:46.108Z,32.80
2018-04-09T14:24:13.582Z,28.93
2018-04-09T14:26:41.330Z,28.80
2018-04-09T14:29:08.794Z,29.90
2018-04-09T14:31:36.562Z,30.90
2018-04-09T14:34:04.322Z,31.10
2018-04-09T14:36:31.833Z,29.93
2018-04-09T14:38:59.465Z,30.37
2018-04-09T14:41:27.160Z,31.57
2018-04-09T14:43:54.742Z,29.27
2018-04-09T14:46:22.209Z,29.20
2018-04-09T14:48:49.675Z,30.83
2018-04-09T14:51:17.450Z,31.80
2018-04-09T14:53:44.921Z,33.87
2018-04-09T14:56:12.674Z,32.40
2018-04-09T14:58:40.133Z,31.17
2018-04-09T15:01:07.822Z,30.60
2018-04-09T15:03:35.299Z,31.10
2018-04-09T15:06:02.765Z,29.30
2018-04-09T15:08:30.231Z,29.77
2018-04-09T15:10:57.702Z,28.50
2018-04-09T15:13:25.162Z,30.60
2018-04-09T15:15:52.954Z,31.50
2018-04-09T15:18:20.742Z,29.30
2018-04-09T15:20:48.481Z,30.40
2018-04-09T15:23:15.949Z,29.47
2018-04-09T15:25:43.410Z,30.97
2018-04-09T15:28:11.163Z,31.13
2018-04-09T15:30:38.626Z,30.70
2018-04-09T15:33:06.090Z,28.40
2018-04-09T15:35:33.732Z,32.40
2018-04-09T15:38:01.200Z,30.97
2018-04-09T15:40:28.670Z,28.93
2018-04-09T15:42:56.222Z,31.10
2018-04-09T15:45:24.905Z,30.67
2018-04-09T15:47:53.873Z,28.60
2018-04-09T15:50:21.663Z,30.73
2018-04-09T15:52:49.482Z,33.30
2018-04-09T15:55:17.148Z,30.93
2018-04-09T15:57:44.605Z,28.63
2018-04-09T16:00:12.082Z,31.50
2018-04-09T16:02:39.553Z,29.80
2018-04-09T16:05:07.038Z,31.43
2018-04-09T16:07:40.210Z,28.17
2018-04-09T16:10:07.731Z,29.37
2018-04-09T16:12:35.236Z,29.37
2018-04-09T16:15:02.706Z,29.10
2018-04-09T16:17:30.178Z,29.37
2018-04-09T16:19:57.921Z,27.80
2018-04-09T16:22:25.602Z,26.33
2018-04-09T16:24:53.069Z,28.83
2018-04-09T16:27:20.563Z,28.87
2018-04-09T16:29:48.025Z,27.23
2018-04-09T16:32:15.492Z,28.80
2018-04-09T16:34:43.132Z,27.10
2018-04-09T16:37:10.657Z,29.80
2018-04-09T16:39:38.196Z,27.40
2018-04-09T16:42:07.202Z,28.70
2018-04-09T16:44:34.818Z,26.97
2018-04-09T16:47:02.418Z,26.77
2018-04-09T16:49:29.877Z,27.77
2018-04-09T16:51:57.347Z,30.87
2018-04-09T16:54:24.814Z,26.00
2018-04-09T16:56:52.479Z,30.43
2018-04-09T16:59:19.933Z,27.83
2018-04-09T17:01:47.423Z,24.80
2018-04-09T17:04:14.931Z,28.07
2018-04-09T17:06:42.710Z,25.47
2018-04-09T17:09:10.488Z,27.30
2018-04-09T17:11:37.984Z,29.67
2018-04-09T17:14:05.606Z,28.83
2018-04-09T17:16:33.065Z,27.77
2018-04-09T17:19:00.544Z,28.27
2018-04-09T17:21:28.006Z,27.33
2018-04-09T17:23:55.471Z,25.57
2018-04-09T17:26:22.973Z,29.27
2018-04-09T17:28:50.589Z,25.17
2018-04-09T17:31:18.202Z,28.43
2018-04-09T17:33:45.961Z,34.23
2018-04-09T17:36:13.642Z,27.80
2018-04-09T17:38:41.185Z,28.50
2018-04-09T17:41:08.665Z,30.13
2018-04-09T17:43:36.416Z,28.57
2018-04-09T17:46:03.875Z,25.83
2018-04-09T17:48:31.345Z,27.57
2018-04-09T17:50:58.809Z,30.30
2018-04-09T17:53:26.547Z,28.60
2018-04-09T17:55:55.551Z,25.77
2018-04-09T17:58:23.017Z,29.00
2018-04-09T18:00:50.474Z,28.20
2018-04-09T18:03:17.933Z,27.90
2018-04-09T18:05:45.685Z,26.60
2018-04-09T18:08:13.142Z,27.83
2018-04-09T18:10:40.613Z,29.87
2018-04-09T18:13:08.082Z,26.97
2018-04-09T18:15:35.808Z,26.03
2018-04-09T18:18:03.278Z,27.63
2018-04-09T18:20:32.269Z,27.60
2018-04-09T18:23:01.241Z,28.77
2018-04-09T18:25:28.705Z,30.80
2018-04-09T18:27:56.210Z,28.80
2018-04-09T18:30:23.647Z,27.00
2018-04-09T18:32:51.117Z,27.70
2018-04-09T18:35:18.862Z,29.10
2018-04-09T18:37:47.865Z,30.37
2018-04-09T18:40:15.630Z,26.87
2018-04-09T18:42:43.105Z,26.43
2018-04-09T18:45:10.749Z,27.90
2018-04-09T18:47:38.977Z,29.40
2018-04-09T18:50:06.781Z,26.70
2018-04-09T18:52:34.245Z,30.23
2018-04-09T18:55:01.830Z,27.43
2018-04-09T18:57:29.366Z,28.73
2018-04-09T18:59:58.362Z,26.73
2018-04-09T19:02:27.332Z,27.90
2018-04-09T19:04:54.802Z,27.07
2018-04-09T19:07:22.265Z,29.87
2018-04-09T19:09:49.740Z,31.23
2018-04-09T19:12:17.201Z,27.90
2018-04-09T19:14:44.666Z,29.60
2018-04-09T19:17:12.433Z,35.47
2018-04-09T19:19:39.909Z,42.00
2018-04-09T19:22:07.371Z,29.90
2018-04-09T19:24:34.854Z,32.40
2018-04-09T19:27:02.313Z,30.13
2018-04-09T19:29:29.796Z,29.67
2018-04-09T19:31:57.261Z,30.63
2018-04-09T19:34:24.853Z,28.30
2018-04-09T19:36:57.925Z,29.93
2018-04-09T19:39:31.005Z,27.20
2018-04-09T19:41:58.672Z,27.17
2018-04-09T19:44:27.650Z,28.57
2018-04-09T19:46:55.107Z,29.93
2018-04-09T19:49:22.585Z,28.47
2018-04-09T19:51:51.566Z,28.00
2018-04-09T19:54:20.558Z,29.43
2018-04-09T19:56:49.525Z,28.23
2018-04-09T19:59:17.054Z,27.83
2018-04-09T20:01:44.469Z,27.83
2018-04-09T20:04:12.739Z,25.90
2018-04-09T20:06:40.222Z,24.63
2018-04-09T20:09:07.923Z,28.50
2018-04-09T20:11:35.513Z,28.03
2018-04-09T20:14:02.990Z,27.40
2018-04-09T20:16:31.954Z,28.30
2018-04-09T20:18:59.449Z,28.10
2018-04-09T20:21:26.905Z,27.73
2018-04-09T20:23:55.882Z,25.97
2018-04-09T20:26:23.362Z,26.13
2018-04-09T20:28:52.376Z,23.33
2018-04-09T20:31:19.833Z,26.30
2018-04-09T20:33:47.323Z,25.17
2018-04-09T20:36:15.031Z,24.60
2018-04-09T20:38:44.006Z,23.00
2018-04-09T20:41:11.482Z,22.60
2018-04-09T20:43:40.450Z,24.10
2018-04-09T20:46:07.910Z,22.37
2018-04-09T20:48:35.386Z,24.70
2018-04-09T20:51:02.854Z,20.97
2018-04-09T20:53:31.825Z,20.57
2018-04-09T20:55:59.302Z,22.87
2018-04-09T20:58:28.270Z,21.53
2018-04-09T21:00:55.737Z,23.70
2018-04-09T21:03:23.205Z,22.30
2018-04-09T21:05:50.678Z,20.50
2018-04-09T21:08:19.648Z,20.30
2018-04-09T21:10:47.129Z,21.03
2018-04-09T21:13:15.502Z,21.17
2018-04-09T21:15:44.474Z,23.17
2018-04-09T21:18:11.937Z,23.97
2018-04-09T21:20:39.409Z,23.03
2018-04-09T21:23:07.086Z,24.67
2018-04-09T21:25:34.582Z,22.10
2018-04-09T21:28:02.055Z,22.10
2018-04-09T21:30:29.529Z,22.40
2018-04-09T21:32:57.009Z,23.10
2018-04-09T21:35:25.977Z,24.63
2018-04-09T21:37:53.445Z,23.67
2018-04-09T21:40:20.906Z,20.97
2018-04-09T21:42:48.378Z,20.87
2018-04-09T21:45:16.609Z,22.70
2018-04-09T21:47:44.133Z,21.17
2018-04-09T21:50:11.589Z,22.87
2018-04-09T21:52:39.818Z,22.87
2018-04-09T21:55:07.421Z,21.50
2018-04-09T21:57:34.896Z,20.90
2018-04-09T22:00:02.361Z,22.20
2018-04-09T22:02:29.823Z,25.10
2018-04-09T22:04:57.310Z,24.17
2018-04-09T22:07:24.774Z,22.90
2018-04-09T22:09:52.233Z,23.53
2018-04-09T22:12:19.830Z,20.70
2018-04-09T22:14:48.089Z,23.93
2018-04-09T22:17:17.089Z,23.03
2018-04-09T22:19:45.411Z,21.17
2018-04-09T22:22:12.886Z,25.13
2018-04-09T22:24:40.346Z,21.90
2018-04-09T22:27:07.809Z,22.00
2018-04-09T22:29:35.302Z,22.93
2018-04-09T22:32:04.277Z,23.23
2018-04-09T22:34:31.776Z,22.43
2018-04-09T22:36:59.997Z,23.67
2018-04-09T22:39:27.501Z,22.40
2018-04-09T22:41:54.979Z,22.97
2018-04-09T22:44:22.510Z,22.77
2018-04-09T22:46:49.966Z,23.07
2018-04-09T22:49:18.948Z,24.63
2018-04-09T22:51:46.633Z,22.27
2018-04-09T22:54:14.104Z,21.73
2018-04-09T22:56:41.569Z,22.97
2018-04-09T22:59:09.041Z,21.53
2018-04-09T23:01:36.513Z,22.97
2018-04-09T23:04:04.018Z,22.17
2018-04-09T23:06:31.485Z,21.40
2018-04-09T23:08:58.942Z,23.10
2018-04-09T23:11:26.424Z,21.73
2018-04-09T23:13:54.154Z,22.47
2018-04-09T23:16:23.121Z,21.03
2018-04-09T23:18:50.602Z,22.57
2018-04-09T23:21:19.570Z,21.90
2018-04-09T23:23:47.034Z,21.40
2018-04-09T23:26:14.820Z,21.83
2018-04-09T23:28:42.581Z,21.73
2018-04-09T23:31:10.906Z,21.70
2018-04-09T23:33:38.421Z,21.47
2018-04-09T23:36:06.185Z,20.60
2018-04-09T23:38:33.953Z,19.23
2018-04-09T23:41:01.425Z,18.43
2018-04-09T23:43:28.890Z,20.00
2018-04-09T23:45:56.356Z,19.87
2018-04-09T23:48:24.090Z,20.17
2018-04-09T23:50:51.553Z,20.40
2018-04-09T23:53:19.234Z,21.10
2018-04-09T23:55:46.774Z,16.70
2018-04-09T23:58:14.470Z,13.37
